createdAt,value
2023-03-19T00:00:54.075Z,13.76
2023-03-19T00:01:54.187Z,13.69
2023-03-19T00:02:54.372Z,13.71
2023-03-19T00:03:54.077Z,13.79
2023-03-19T00:04:54.042Z,13.83
2023-03-19T00:05:54.113Z,13.83
2023-03-19T00:06:54.042Z,13.81
2023-03-19T00:07:53.998Z,13.80
2023-03-19T00:08:53.993Z,13.81
2023-03-19T00:09:54.042Z,13.83
2023-03-19T00:10:53.978Z,13.87
2023-03-19T00:11:54.010Z,13.87
2023-03-19T00:12:53.962Z,13.80
2023-03-19T00:13:53.960Z,13.79
2023-03-19T00:14:53.930Z,13.80
2023-03-19T00:15:53.955Z,13.77
2023-03-19T00:16:53.957Z,13.79
2023-03-19T00:17:53.893Z,13.80
2023-03-19T00:18:53.872Z,13.81
2023-03-19T00:19:53.866Z,13.83
2023-03-19T00:20:53.860Z,13.87
2023-03-19T00:21:53.926Z,13.84
2023-03-19T00:22:53.843Z,13.71
2023-03-19T00:23:53.818Z,13.70
2023-03-19T00:24:53.819Z,13.61
2023-03-19T00:25:53.809Z,13.59
2023-03-19T00:26:53.782Z,13.58
2023-03-19T00:27:53.839Z,13.62
2023-03-19T00:28:53.768Z,13.70
2023-03-19T00:29:53.784Z,13.76
2023-03-19T00:30:53.766Z,13.80
2023-03-19T00:31:53.737Z,13.83
2023-03-19T00:32:53.755Z,13.87
2023-03-19T00:33:53.753Z,13.88
2023-03-19T00:34:53.686Z,13.77
2023-03-19T00:35:53.713Z,13.40
2023-03-19T00:36:53.674Z,13.38
2023-03-19T00:37:53.674Z,13.52
2023-03-19T00:38:53.646Z,13.59
2023-03-19T00:39:53.711Z,13.73
2023-03-19T00:40:53.632Z,13.83
2023-03-19T00:41:53.598Z,13.89
2023-03-19T00:42:53.587Z,13.88
2023-03-19T00:43:53.612Z,13.87
2023-03-19T00:44:53.589Z,13.73
2023-03-19T00:45:53.615Z,13.55
2023-03-19T00:46:53.560Z,13.40
2023-03-19T00:47:53.527Z,13.33
2023-03-19T00:48:53.524Z,13.43
2023-03-19T00:49:53.540Z,13.52
2023-03-19T00:50:53.502Z,13.46
2023-03-19T00:51:53.766Z,13.41
2023-03-19T00:52:53.506Z,13.44
2023-03-19T00:53:53.478Z,13.58
2023-03-19T00:54:53.465Z,13.69
2023-03-19T00:55:53.440Z,13.71
2023-03-19T00:56:53.424Z,13.76
2023-03-19T00:57:53.501Z,13.80
2023-03-19T00:58:53.400Z,13.81
2023-03-19T00:59:53.435Z,13.76
2023-03-19T01:00:53.401Z,13.58
2023-03-19T01:01:53.371Z,13.49
2023-03-19T01:02:53.351Z,13.47
2023-03-19T01:03:53.385Z,13.47
2023-03-19T01:04:53.353Z,13.56
2023-03-19T01:05:55.073Z,13.67
2023-03-19T01:06:53.307Z,13.71
2023-03-19T01:07:53.307Z,13.69
2023-03-19T01:08:53.277Z,13.65
2023-03-19T01:09:53.306Z,13.71
2023-03-19T01:10:53.277Z,13.76
2023-03-19T01:11:53.253Z,13.71
2023-03-19T01:12:53.268Z,13.70
2023-03-19T01:13:53.224Z,13.69
2023-03-19T01:14:53.228Z,13.74
2023-03-19T01:15:53.238Z,13.70
2023-03-19T01:16:53.186Z,13.71
2023-03-19T01:17:53.177Z,13.74
2023-03-19T01:18:53.173Z,13.76
2023-03-19T01:19:53.168Z,13.71
2023-03-19T01:20:53.328Z,13.73
2023-03-19T01:21:53.192Z,13.77
2023-03-19T01:22:53.129Z,13.83
2023-03-19T01:23:53.109Z,13.84
2023-03-19T01:24:53.098Z,13.88
2023-03-19T01:25:53.084Z,13.91
2023-03-19T01:26:53.088Z,13.95
2023-03-19T01:27:53.111Z,13.95
2023-03-19T01:28:53.069Z,13.91
2023-03-19T01:29:53.065Z,13.89
2023-03-19T01:30:53.102Z,13.88
2023-03-19T01:31:53.028Z,13.79
2023-03-19T01:32:53.060Z,13.83
2023-03-19T01:33:53.066Z,13.74
2023-03-19T01:34:52.982Z,13.71
2023-03-19T01:35:53.035Z,13.58
2023-03-19T01:36:52.973Z,13.54
2023-03-19T01:37:52.965Z,13.55
2023-03-19T01:38:52.935Z,13.56
2023-03-19T01:39:52.946Z,13.65
2023-03-19T01:40:52.943Z,13.73
2023-03-19T01:41:52.900Z,13.73
2023-03-19T01:42:52.880Z,13.74
2023-03-19T01:43:52.873Z,13.73
2023-03-19T01:44:52.870Z,13.73
2023-03-19T01:45:52.938Z,13.71
2023-03-19T01:46:52.852Z,13.71
2023-03-19T01:47:52.821Z,13.73
2023-03-19T01:48:52.828Z,13.74
2023-03-19T01:49:52.791Z,13.74
2023-03-19T01:50:52.793Z,13.73
2023-03-19T01:51:52.830Z,13.73
2023-03-19T01:52:52.764Z,13.71
2023-03-19T01:53:52.753Z,13.71
2023-03-19T01:54:52.750Z,13.61
2023-03-19T01:55:52.737Z,13.59
2023-03-19T01:56:52.726Z,13.61
2023-03-19T01:57:52.761Z,13.62
2023-03-19T01:58:52.691Z,13.70
2023-03-19T01:59:52.949Z,13.55
2023-03-19T02:00:52.669Z,13.49
2023-03-19T02:01:52.898Z,13.61
2023-03-19T02:02:52.643Z,13.54
2023-03-19T02:03:52.846Z,13.43
2023-03-19T02:04:52.810Z,13.52
2023-03-19T02:05:52.612Z,13.56
2023-03-19T02:06:52.604Z,13.58
2023-03-19T02:07:52.595Z,13.56
2023-03-19T02:08:52.599Z,13.51
2023-03-19T02:09:52.624Z,13.49
2023-03-19T02:10:52.677Z,13.49
2023-03-19T02:11:52.541Z,13.40
2023-03-19T02:12:52.577Z,13.32
2023-03-19T02:13:52.524Z,13.25
2023-03-19T02:14:52.503Z,13.43
2023-03-19T02:15:52.574Z,13.43
2023-03-19T02:16:52.513Z,13.44
2023-03-19T02:17:52.495Z,13.32
2023-03-19T02:18:52.532Z,13.25
2023-03-19T02:19:52.484Z,13.20
2023-03-19T02:20:52.465Z,13.36
2023-03-19T02:21:52.531Z,13.40
2023-03-19T02:22:52.481Z,13.44
2023-03-19T02:23:52.417Z,13.43
2023-03-19T02:24:52.392Z,13.44
2023-03-19T02:25:52.373Z,13.47
2023-03-19T02:26:52.367Z,13.40
2023-03-19T02:27:52.415Z,13.40
2023-03-19T02:28:52.371Z,13.30
2023-03-19T02:29:52.346Z,13.40
2023-03-19T02:30:52.325Z,13.44
2023-03-19T02:31:52.333Z,13.47
2023-03-19T02:32:52.467Z,13.47
2023-03-19T02:33:52.326Z,13.49
2023-03-19T02:34:52.274Z,13.44
2023-03-19T02:35:52.365Z,13.44
2023-03-19T02:36:52.264Z,13.51
2023-03-19T02:37:52.236Z,13.49
2023-03-19T02:38:52.242Z,13.51
2023-03-19T02:39:52.280Z,13.55
2023-03-19T02:40:52.199Z,13.62
2023-03-19T02:41:52.213Z,13.52
2023-03-19T02:42:52.175Z,13.46
2023-03-19T02:43:52.173Z,13.38
2023-03-19T02:44:52.193Z,13.41
2023-03-19T02:45:52.150Z,13.40
2023-03-19T02:46:52.201Z,13.38
2023-03-19T02:47:52.120Z,13.33
2023-03-19T02:48:52.106Z,13.46
2023-03-19T02:49:52.108Z,13.56
2023-03-19T02:50:52.142Z,13.59
2023-03-19T02:51:52.099Z,13.49
2023-03-19T02:52:52.060Z,13.61
2023-03-19T02:53:52.047Z,13.61
2023-03-19T02:54:52.046Z,13.40
2023-03-19T02:55:52.039Z,13.43
2023-03-19T02:56:52.088Z,13.32
2023-03-19T02:57:51.999Z,13.41
2023-03-19T02:58:51.993Z,13.56
2023-03-19T02:59:51.968Z,13.70
2023-03-19T03:00:52.112Z,13.87
2023-03-19T03:01:51.995Z,13.89
2023-03-19T03:02:51.973Z,13.92
2023-03-19T03:03:51.944Z,13.94
2023-03-19T03:04:52.031Z,13.88
2023-03-19T03:05:51.917Z,13.76
2023-03-19T03:06:51.906Z,13.54
2023-03-19T03:07:51.908Z,13.25
2023-03-19T03:08:51.909Z,13.24
2023-03-19T03:09:51.900Z,13.22
2023-03-19T03:10:51.865Z,13.07
2023-03-19T03:11:51.891Z,13.09
2023-03-19T03:12:51.836Z,13.30
2023-03-19T03:13:51.850Z,13.55
2023-03-19T03:14:51.816Z,13.65
2023-03-19T03:15:51.788Z,13.76
2023-03-19T03:16:51.786Z,13.83
2023-03-19T03:17:51.780Z,13.76
2023-03-19T03:18:51.784Z,13.55
2023-03-19T03:19:51.760Z,13.52
2023-03-19T03:20:51.749Z,13.56
2023-03-19T03:21:51.737Z,13.65
2023-03-19T03:22:51.710Z,13.74
2023-03-19T03:23:51.719Z,13.59
2023-03-19T03:24:51.771Z,13.59
2023-03-19T03:25:51.700Z,13.69
2023-03-19T03:26:51.672Z,13.65
2023-03-19T03:27:51.673Z,13.54
2023-03-19T03:28:51.651Z,13.32
2023-03-19T03:29:51.633Z,13.20
2023-03-19T03:30:51.649Z,13.21
2023-03-19T03:31:51.638Z,13.30
2023-03-19T03:32:51.681Z,13.49
2023-03-19T03:33:51.615Z,13.51
2023-03-19T03:34:51.594Z,13.55
2023-03-19T03:35:51.578Z,13.56
2023-03-19T03:36:51.698Z,13.62
2023-03-19T03:37:51.582Z,13.52
2023-03-19T03:38:51.524Z,13.52
2023-03-19T03:39:51.535Z,13.58
2023-03-19T03:40:51.505Z,13.67
2023-03-19T03:41:51.649Z,13.59
2023-03-19T03:42:51.524Z,13.65
2023-03-19T03:43:51.528Z,13.54
2023-03-19T03:44:51.466Z,13.47
2023-03-19T03:45:51.488Z,13.51
2023-03-19T03:46:51.442Z,13.47
2023-03-19T03:47:51.455Z,13.49
2023-03-19T03:48:51.468Z,13.44
2023-03-19T03:49:51.403Z,13.51
2023-03-19T03:50:51.406Z,13.29
2023-03-19T03:51:51.391Z,13.12
2023-03-19T03:52:51.381Z,12.82
2023-03-19T03:53:51.407Z,12.84
2023-03-19T03:54:51.385Z,12.89
2023-03-19T03:55:51.349Z,12.96
2023-03-19T03:56:51.332Z,12.97
2023-03-19T03:57:51.402Z,13.03
2023-03-19T03:58:51.337Z,12.97
2023-03-19T03:59:51.324Z,12.93
2023-03-19T04:00:51.282Z,12.87
2023-03-19T04:01:51.337Z,12.69
2023-03-19T04:02:51.268Z,12.57
2023-03-19T04:03:51.231Z,12.54
2023-03-19T04:04:51.250Z,12.63
2023-03-19T04:05:51.220Z,12.63
2023-03-19T04:06:51.210Z,12.60
2023-03-19T04:07:51.197Z,12.63
2023-03-19T04:08:51.170Z,12.64
2023-03-19T04:09:51.204Z,12.59
2023-03-19T04:10:51.174Z,12.45
2023-03-19T04:11:51.688Z,12.21
2023-03-19T04:12:51.164Z,12.19
2023-03-19T04:13:51.133Z,12.05
2023-03-19T04:14:51.105Z,11.93
2023-03-19T04:15:51.171Z,11.97
2023-03-19T04:16:51.178Z,12.11
2023-03-19T04:17:51.105Z,12.13
2023-03-19T04:18:51.119Z,12.15
2023-03-19T04:19:51.112Z,12.21
2023-03-19T04:20:51.082Z,12.21
2023-03-19T04:21:51.097Z,12.19
2023-03-19T04:22:51.019Z,12.09
2023-03-19T04:23:51.035Z,12.05
2023-03-19T04:24:50.985Z,11.94
2023-03-19T04:25:50.973Z,11.89
2023-03-19T04:26:50.978Z,12.01
2023-03-19T04:27:51.195Z,11.90
2023-03-19T04:28:50.946Z,11.94
2023-03-19T04:29:50.988Z,11.90
2023-03-19T04:30:50.971Z,11.99
2023-03-19T04:31:50.948Z,11.85
2023-03-19T04:32:50.947Z,11.93
2023-03-19T04:33:50.935Z,12.06
2023-03-19T04:34:50.867Z,12.19
2023-03-19T04:35:50.906Z,12.15
2023-03-19T04:36:50.849Z,12.15
2023-03-19T04:37:50.861Z,12.12
2023-03-19T04:38:50.866Z,12.16
2023-03-19T04:39:50.823Z,12.20
2023-03-19T04:40:50.796Z,12.12
2023-03-19T04:41:50.813Z,12.08
2023-03-19T04:42:50.779Z,12.09
2023-03-19T04:43:50.768Z,12.05
2023-03-19T04:44:50.799Z,11.96
2023-03-19T04:45:50.771Z,11.70
2023-03-19T04:46:50.732Z,11.77
2023-03-19T04:47:50.716Z,11.70
2023-03-19T04:48:50.739Z,11.78
2023-03-19T04:49:50.740Z,11.85
2023-03-19T04:50:50.678Z,11.78
2023-03-19T04:51:50.685Z,11.86
2023-03-19T04:52:50.659Z,11.70
2023-03-19T04:53:50.645Z,11.68
2023-03-19T04:54:50.676Z,11.71
2023-03-19T04:55:50.776Z,11.72
2023-03-19T04:56:50.609Z,11.82
2023-03-19T04:57:50.620Z,11.99
2023-03-19T04:58:50.587Z,12.09
2023-03-19T04:59:50.588Z,12.09
2023-03-19T05:00:50.561Z,12.06
2023-03-19T05:01:50.586Z,11.94
2023-03-19T05:02:50.548Z,11.97
2023-03-19T05:03:50.713Z,12.12
2023-03-19T05:04:50.527Z,12.06
2023-03-19T05:05:50.526Z,11.96
2023-03-19T05:06:50.546Z,12.05
2023-03-19T05:07:50.488Z,12.05
2023-03-19T05:08:50.533Z,12.05
2023-03-19T05:09:50.478Z,11.89
2023-03-19T05:10:50.486Z,11.77
2023-03-19T05:11:50.450Z,11.80
2023-03-19T05:12:50.476Z,11.87
2023-03-19T05:13:50.422Z,11.94
2023-03-19T05:14:50.435Z,11.87
2023-03-19T05:15:50.427Z,11.94
2023-03-19T05:16:50.387Z,11.97
2023-03-19T05:17:50.454Z,11.97
2023-03-19T05:18:50.358Z,12.05
2023-03-19T05:19:50.365Z,11.99
2023-03-19T05:20:50.339Z,12.02
2023-03-19T05:21:50.344Z,12.02
2023-03-19T05:22:50.315Z,11.96
2023-03-19T05:23:50.331Z,11.96
2023-03-19T05:24:50.328Z,12.04
2023-03-19T05:25:50.290Z,11.97
2023-03-19T05:26:50.274Z,11.99
2023-03-19T05:27:50.260Z,11.96
2023-03-19T05:28:50.344Z,11.72
2023-03-19T05:29:50.243Z,11.77
2023-03-19T05:30:50.281Z,11.82
2023-03-19T05:31:50.221Z,11.80
2023-03-19T05:32:50.244Z,11.70
2023-03-19T05:33:50.207Z,11.74
2023-03-19T05:34:50.392Z,11.80
2023-03-19T05:35:50.241Z,11.90
2023-03-19T05:36:50.164Z,11.93
2023-03-19T05:37:50.155Z,11.80
2023-03-19T05:38:50.187Z,11.83
2023-03-19T05:39:50.127Z,11.94
2023-03-19T05:40:50.131Z,11.83
2023-03-19T05:41:50.114Z,11.53
2023-03-19T05:42:50.129Z,11.29
2023-03-19T05:43:50.084Z,11.31
2023-03-19T05:44:50.088Z,11.32
2023-03-19T05:45:50.112Z,11.35
2023-03-19T05:46:50.118Z,11.38
2023-03-19T05:47:50.064Z,11.46
2023-03-19T05:48:50.057Z,11.54
2023-03-19T05:49:50.111Z,11.61
2023-03-19T05:50:50.057Z,11.46
2023-03-19T05:51:50.058Z,11.56
2023-03-19T05:52:49.989Z,11.68
2023-03-19T05:53:49.963Z,11.70
2023-03-19T05:54:49.945Z,11.78
2023-03-19T05:55:49.949Z,11.85
2023-03-19T05:56:50.010Z,11.89
2023-03-19T05:57:49.946Z,11.93
2023-03-19T05:58:49.916Z,11.96
2023-03-19T05:59:49.949Z,11.99
2023-03-19T06:00:49.898Z,11.90
2023-03-19T06:01:49.962Z,11.78
2023-03-19T06:02:49.942Z,11.72
2023-03-19T06:03:49.996Z,11.67
2023-03-19T06:04:49.847Z,11.65
2023-03-19T06:05:49.823Z,11.67
2023-03-19T06:06:49.820Z,11.62
2023-03-19T06:07:49.835Z,11.68
2023-03-19T06:08:49.823Z,11.68
2023-03-19T06:09:49.956Z,11.77
2023-03-19T06:10:49.786Z,11.78
2023-03-19T06:11:49.754Z,11.75
2023-03-19T06:12:49.766Z,11.70
2023-03-19T06:13:49.768Z,11.68
2023-03-19T06:14:49.743Z,11.77
2023-03-19T06:15:49.887Z,11.77
2023-03-19T06:16:49.727Z,11.72
2023-03-19T06:17:49.694Z,11.75
2023-03-19T06:18:49.684Z,11.57
2023-03-19T06:19:49.800Z,11.59
2023-03-19T06:20:49.660Z,11.61
2023-03-19T06:21:49.663Z,11.78
2023-03-19T06:22:49.635Z,11.94
2023-03-19T06:23:49.610Z,12.01
2023-03-19T06:24:49.816Z,12.08
2023-03-19T06:25:49.607Z,12.15
2023-03-19T06:26:49.586Z,12.26
2023-03-19T06:27:49.596Z,12.29
2023-03-19T06:28:49.566Z,12.31
2023-03-19T06:29:49.579Z,12.34
2023-03-19T06:30:49.572Z,12.42
2023-03-19T06:31:49.576Z,12.41
2023-03-19T06:32:49.555Z,12.42
2023-03-19T06:33:49.510Z,12.48
2023-03-19T06:34:49.523Z,12.45
2023-03-19T06:35:49.547Z,12.39
2023-03-19T06:36:49.472Z,12.46
2023-03-19T06:37:49.479Z,12.51
2023-03-19T06:38:49.451Z,12.57
2023-03-19T06:39:49.453Z,12.66
2023-03-19T06:40:49.434Z,12.66
2023-03-19T06:41:49.442Z,12.67
2023-03-19T06:42:49.405Z,12.70
2023-03-19T06:43:49.387Z,12.69
2023-03-19T06:44:51.231Z,12.54
2023-03-19T06:45:49.436Z,12.41
2023-03-19T06:46:49.361Z,12.52
2023-03-19T06:47:50.626Z,12.60
2023-03-19T06:48:49.365Z,12.63
2023-03-19T06:49:49.364Z,12.70
2023-03-19T06:50:49.366Z,12.78
2023-03-19T06:51:49.317Z,12.75
2023-03-19T06:52:49.311Z,12.74
2023-03-19T06:53:49.329Z,12.75
2023-03-19T06:54:49.284Z,12.92
2023-03-19T06:55:49.279Z,12.97
2023-03-19T06:56:49.246Z,12.89
2023-03-19T06:57:49.259Z,12.84
2023-03-19T06:58:49.309Z,12.97
2023-03-19T06:59:49.352Z,12.99
2023-03-19T07:00:49.228Z,13.04
2023-03-19T07:01:49.190Z,13.11
2023-03-19T07:02:49.177Z,13.06
2023-03-19T07:03:49.261Z,13.03
2023-03-19T07:04:49.170Z,13.04
2023-03-19T07:05:49.151Z,13.20
2023-03-19T07:06:49.120Z,13.18
2023-03-19T07:07:49.147Z,13.18
2023-03-19T07:08:49.566Z,13.32
2023-03-19T07:09:49.128Z,13.14
2023-03-19T07:10:49.691Z,13.11
2023-03-19T07:11:49.067Z,13.33
2023-03-19T07:12:49.355Z,13.46
2023-03-19T07:13:49.057Z,13.51
2023-03-19T07:14:49.095Z,13.40
2023-03-19T07:15:49.045Z,13.29
2023-03-19T07:16:49.168Z,13.06
2023-03-19T07:17:48.990Z,13.21
2023-03-19T07:18:48.986Z,13.02
2023-03-19T07:19:48.974Z,13.00
2023-03-19T07:20:48.948Z,13.15
2023-03-19T07:21:48.974Z,13.15
2023-03-19T07:22:48.974Z,13.00
2023-03-19T07:23:48.958Z,13.00
2023-03-19T07:24:48.931Z,12.99
2023-03-19T07:25:49.071Z,13.27
2023-03-19T07:26:48.925Z,13.22
2023-03-19T07:27:49.091Z,13.30
2023-03-19T07:28:48.885Z,13.29
2023-03-19T07:29:49.003Z,13.36
2023-03-19T07:30:48.861Z,13.52
2023-03-19T07:31:48.850Z,13.46
2023-03-19T07:32:48.829Z,13.43
2023-03-19T07:33:48.852Z,13.36
2023-03-19T07:34:48.805Z,13.49
2023-03-19T07:35:48.824Z,13.43
2023-03-19T07:36:48.835Z,13.58
2023-03-19T07:37:48.785Z,13.81
2023-03-19T07:38:48.741Z,13.51
2023-03-19T07:39:48.861Z,13.27
2023-03-19T07:41:01.561Z,13.51
2023-03-19T07:41:49.743Z,13.62
2023-03-19T07:42:48.748Z,13.55
2023-03-19T07:43:48.750Z,13.49
2023-03-19T07:44:48.810Z,13.41
2023-03-19T07:45:48.709Z,13.69
2023-03-19T07:46:48.680Z,13.83
2023-03-19T07:47:50.242Z,13.63
2023-03-19T07:48:48.651Z,13.70
2023-03-19T07:49:48.638Z,13.73
2023-03-19T07:50:48.664Z,13.80
2023-03-19T07:51:48.766Z,13.83
2023-03-19T07:52:48.593Z,13.77
2023-03-19T07:53:48.644Z,13.98
2023-03-19T07:54:48.562Z,14.13
2023-03-19T07:55:48.551Z,14.21
2023-03-19T07:56:48.541Z,14.21
2023-03-19T07:57:48.580Z,14.20
2023-03-19T07:58:48.590Z,14.10
2023-03-19T07:59:49.234Z,14.24
2023-03-19T08:00:48.569Z,14.19
2023-03-19T08:01:48.472Z,14.14
2023-03-19T08:02:48.517Z,13.81
2023-03-19T08:03:49.050Z,13.87
2023-03-19T08:04:48.487Z,13.81
2023-03-19T08:05:48.526Z,13.91
2023-03-19T08:06:48.553Z,13.92
2023-03-19T08:07:48.412Z,13.99
2023-03-19T08:08:48.523Z,13.83
2023-03-19T08:09:48.894Z,13.77
2023-03-19T08:10:48.440Z,13.89
2023-03-19T08:11:48.394Z,13.99
2023-03-19T08:12:48.637Z,14.01
2023-03-19T08:13:48.427Z,13.77
2023-03-19T08:14:48.368Z,13.76
2023-03-19T08:15:48.363Z,13.80
2023-03-19T08:16:48.428Z,13.96
2023-03-19T08:17:48.336Z,14.10
2023-03-19T08:18:48.286Z,14.31
2023-03-19T08:19:48.286Z,14.35
2023-03-19T08:20:48.286Z,14.35
2023-03-19T08:21:48.256Z,14.50
2023-03-19T08:22:48.253Z,14.50
2023-03-19T08:23:48.763Z,14.60
2023-03-19T08:24:48.207Z,14.78
2023-03-19T08:25:48.308Z,14.68
2023-03-19T08:26:48.228Z,14.56
2023-03-19T08:27:48.216Z,14.46
2023-03-19T08:28:48.226Z,14.39
2023-03-19T08:29:48.197Z,14.37
2023-03-19T08:30:48.306Z,14.38
2023-03-19T08:31:48.221Z,14.46
2023-03-19T08:32:48.229Z,14.39
2023-03-19T08:33:48.162Z,14.43
2023-03-19T08:34:49.714Z,14.60
2023-03-19T08:35:48.152Z,14.74
2023-03-19T08:36:48.213Z,14.71
2023-03-19T08:37:48.085Z,14.67
2023-03-19T08:38:48.102Z,14.81
2023-03-19T08:39:48.040Z,15.05
2023-03-19T08:40:48.045Z,15.19
2023-03-19T08:41:48.050Z,15.27
2023-03-19T08:42:48.153Z,15.21
2023-03-19T08:43:48.051Z,15.08
2023-03-19T08:44:47.983Z,15.21
2023-03-19T08:45:47.985Z,15.43
2023-03-19T08:46:48.018Z,15.24
2023-03-19T08:47:48.067Z,15.11
2023-03-19T08:48:47.979Z,15.09
2023-03-19T08:49:47.978Z,15.28
2023-03-19T08:50:47.948Z,15.19
2023-03-19T08:51:47.905Z,15.31
2023-03-19T08:52:47.901Z,15.24
2023-03-19T08:53:47.951Z,15.31
2023-03-19T08:54:47.880Z,15.23
2023-03-19T08:55:47.973Z,15.35
2023-03-19T08:56:47.857Z,15.59
2023-03-19T08:57:47.908Z,15.42
2023-03-19T08:58:47.824Z,15.43
2023-03-19T08:59:47.850Z,15.67
2023-03-19T09:00:47.828Z,15.66
2023-03-19T09:01:47.825Z,15.76
2023-03-19T09:02:48.133Z,15.89
2023-03-19T09:03:47.814Z,16.01
2023-03-19T09:04:47.813Z,15.89
2023-03-19T09:05:47.769Z,15.93
2023-03-19T09:06:47.744Z,15.67
2023-03-19T09:07:47.751Z,15.52
2023-03-19T09:08:47.694Z,15.43
2023-03-19T09:09:47.785Z,15.56
2023-03-19T09:10:49.433Z,15.42
2023-03-19T09:11:47.676Z,15.20
2023-03-19T09:12:48.616Z,15.35
2023-03-19T09:13:47.655Z,15.33
2023-03-19T09:14:47.880Z,15.09
2023-03-19T09:15:47.667Z,14.98
2023-03-19T09:16:47.652Z,15.05
2023-03-19T09:17:47.661Z,15.09
2023-03-19T09:18:47.617Z,15.38
2023-03-19T09:19:47.716Z,15.45
2023-03-19T09:20:47.696Z,15.66
2023-03-19T09:21:47.549Z,15.28
2023-03-19T09:22:47.614Z,15.36
2023-03-19T09:23:47.561Z,15.15
2023-03-19T09:24:47.574Z,15.11
2023-03-19T09:25:47.519Z,14.94
2023-03-19T09:26:47.520Z,15.12
2023-03-19T09:27:47.939Z,15.26
2023-03-19T09:28:47.534Z,15.30
2023-03-19T09:29:47.520Z,15.30
2023-03-19T09:30:47.457Z,15.28
2023-03-19T09:31:47.757Z,15.46
2023-03-19T09:32:47.590Z,15.56
2023-03-19T09:33:47.510Z,15.41
2023-03-19T09:34:47.471Z,15.66
2023-03-19T09:35:47.528Z,15.84
2023-03-19T09:36:47.436Z,15.94
2023-03-19T09:37:47.396Z,15.99
2023-03-19T09:38:47.381Z,16.00
2023-03-19T09:39:47.515Z,16.12
2023-03-19T09:40:47.478Z,15.99
2023-03-19T09:41:47.324Z,15.94
2023-03-19T09:42:47.322Z,15.70
2023-03-19T09:43:47.336Z,16.00
2023-03-19T09:44:47.347Z,16.09
2023-03-19T09:45:47.292Z,16.23
2023-03-19T09:46:47.355Z,16.45
2023-03-19T09:47:47.263Z,16.71
2023-03-19T09:48:47.274Z,16.77
2023-03-19T09:49:47.245Z,16.55
2023-03-19T09:50:47.274Z,16.74
2023-03-19T09:51:47.279Z,17.04
2023-03-19T09:52:47.263Z,16.85
2023-03-19T09:53:47.188Z,17.08
2023-03-19T09:54:47.214Z,17.28
2023-03-19T09:55:47.207Z,17.17
2023-03-19T09:56:47.146Z,17.33
2023-03-19T09:57:47.138Z,17.82
2023-03-19T09:58:47.172Z,18.17
2023-03-19T09:59:47.180Z,18.57
2023-03-19T10:00:47.137Z,18.40
2023-03-19T10:01:47.162Z,18.70
2023-03-19T10:02:47.080Z,18.94
2023-03-19T10:03:47.162Z,19.15
2023-03-19T10:04:47.074Z,19.32
2023-03-19T10:05:47.049Z,19.13
2023-03-19T10:06:48.310Z,19.08
2023-03-19T10:07:47.106Z,18.99
2023-03-19T10:08:47.122Z,19.11
2023-03-19T10:09:47.010Z,19.29
2023-03-19T10:10:46.989Z,19.50
2023-03-19T10:11:46.983Z,19.25
2023-03-19T10:12:47.124Z,19.25
2023-03-19T10:13:46.971Z,19.31
2023-03-19T10:14:46.941Z,19.10
2023-03-19T10:15:46.931Z,18.87
2023-03-19T10:16:46.914Z,18.80
2023-03-19T10:17:46.918Z,18.55
2023-03-19T10:18:47.126Z,18.59
2023-03-19T10:19:47.045Z,18.82
2023-03-19T10:20:46.901Z,18.94
2023-03-19T10:21:46.909Z,18.97
2023-03-19T10:22:46.864Z,18.82
2023-03-19T10:23:47.026Z,18.55
2023-03-19T10:24:46.899Z,18.36
2023-03-19T10:25:46.890Z,18.44
2023-03-19T10:26:46.801Z,18.39
2023-03-19T10:27:46.846Z,18.50
2023-03-19T10:28:46.792Z,18.47
2023-03-19T10:29:46.806Z,18.34
2023-03-19T10:30:46.759Z,18.22
2023-03-19T10:31:46.786Z,18.24
2023-03-19T10:32:46.740Z,18.42
2023-03-19T10:33:46.744Z,18.67
2023-03-19T10:34:46.797Z,18.36
2023-03-19T10:35:46.791Z,18.36
2023-03-19T10:36:46.697Z,18.37
2023-03-19T10:37:46.675Z,18.24
2023-03-19T10:38:46.659Z,18.40
2023-03-19T10:39:46.681Z,18.34
2023-03-19T10:40:46.702Z,18.03
2023-03-19T10:41:46.643Z,17.84
2023-03-19T10:42:46.633Z,17.78
2023-03-19T10:43:46.602Z,17.82
2023-03-19T10:44:46.592Z,17.59
2023-03-19T10:45:46.677Z,17.59
2023-03-19T10:46:46.602Z,17.54
2023-03-19T10:47:46.556Z,17.67
2023-03-19T10:48:46.676Z,17.28
2023-03-19T10:49:46.550Z,17.36
2023-03-19T10:50:46.599Z,17.44
2023-03-19T10:51:46.563Z,17.20
2023-03-19T10:52:46.495Z,17.22
2023-03-19T10:53:46.519Z,17.25
2023-03-19T10:54:46.483Z,17.47
2023-03-19T10:55:46.465Z,17.43
2023-03-19T10:56:46.475Z,17.41
2023-03-19T10:57:46.486Z,17.54
2023-03-19T10:58:46.438Z,17.59
2023-03-19T10:59:46.421Z,17.54
2023-03-19T11:00:46.518Z,17.69
2023-03-19T11:01:46.422Z,17.53
2023-03-19T11:02:46.466Z,17.62
2023-03-19T11:03:46.385Z,17.50
2023-03-19T11:04:46.395Z,17.59
2023-03-19T11:05:46.356Z,17.63
2023-03-19T11:06:46.340Z,17.81
2023-03-19T11:07:46.323Z,18.07
2023-03-19T11:08:46.346Z,18.22
2023-03-19T11:09:46.300Z,18.04
2023-03-19T11:10:46.317Z,18.00
2023-03-19T11:11:47.026Z,18.25
2023-03-19T11:12:46.303Z,18.12
2023-03-19T11:13:46.254Z,17.97
2023-03-19T11:14:46.297Z,17.88
2023-03-19T11:15:46.228Z,17.97
2023-03-19T11:16:46.325Z,17.91
2023-03-19T11:17:46.214Z,17.95
2023-03-19T11:18:46.196Z,17.94
2023-03-19T11:19:46.192Z,17.88
2023-03-19T11:20:46.220Z,17.55
2023-03-19T11:21:46.195Z,17.20
2023-03-19T11:22:46.210Z,17.23
2023-03-19T11:23:46.137Z,17.08
2023-03-19T11:24:46.157Z,17.33
2023-03-19T11:25:46.193Z,17.47
2023-03-19T11:26:46.126Z,17.18
2023-03-19T11:27:46.126Z,17.17
2023-03-19T11:28:46.090Z,17.20
2023-03-19T11:29:46.066Z,16.93
2023-03-19T11:30:46.075Z,17.22
2023-03-19T11:31:46.164Z,17.35
2023-03-19T11:32:46.196Z,17.55
2023-03-19T11:33:46.028Z,17.32
2023-03-19T11:34:46.027Z,17.20
2023-03-19T11:35:46.086Z,17.26
2023-03-19T11:36:46.002Z,17.11
2023-03-19T11:37:46.014Z,17.00
2023-03-19T11:38:45.961Z,17.04
2023-03-19T11:39:45.966Z,17.10
2023-03-19T11:40:45.950Z,16.92
2023-03-19T11:41:45.930Z,16.67
2023-03-19T11:42:45.920Z,16.73
2023-03-19T11:43:45.951Z,16.85
2023-03-19T11:44:45.916Z,17.00
2023-03-19T11:45:45.999Z,16.95
2023-03-19T11:46:45.877Z,17.04
2023-03-19T11:47:45.884Z,17.00
2023-03-19T11:48:45.854Z,16.85
2023-03-19T11:49:45.885Z,16.62
2023-03-19T11:50:48.087Z,16.40
2023-03-19T11:51:45.833Z,16.12
2023-03-19T11:52:45.807Z,16.03
2023-03-19T11:53:45.798Z,15.64
2023-03-19T11:54:45.788Z,15.51
2023-03-19T11:55:46.983Z,15.57
2023-03-19T11:56:45.782Z,15.68
2023-03-19T11:57:45.737Z,15.60
2023-03-19T11:58:45.726Z,15.66
2023-03-19T11:59:45.729Z,15.89
2023-03-19T12:00:45.718Z,15.94
2023-03-19T12:01:45.765Z,15.82
2023-03-19T12:02:45.719Z,15.93
2023-03-19T12:03:45.736Z,15.94
2023-03-19T12:04:45.670Z,15.78
2023-03-19T12:05:45.679Z,15.74
2023-03-19T12:06:45.680Z,15.31
2023-03-19T12:07:45.650Z,15.30
2023-03-19T12:08:45.660Z,15.66
2023-03-19T12:09:45.600Z,15.49
2023-03-19T12:10:45.607Z,15.52
2023-03-19T12:11:45.693Z,15.81
2023-03-19T12:12:45.582Z,15.84
2023-03-19T12:13:45.587Z,16.01
2023-03-19T12:14:45.550Z,16.07
2023-03-19T12:15:45.571Z,16.14
2023-03-19T12:16:46.345Z,16.18
2023-03-19T12:17:45.564Z,16.23
2023-03-19T12:18:45.544Z,16.04
2023-03-19T12:19:45.516Z,16.14
2023-03-19T12:20:45.496Z,16.26
2023-03-19T12:21:45.499Z,16.12
2023-03-19T12:22:45.462Z,16.04
2023-03-19T12:23:46.734Z,16.11
2023-03-19T12:24:45.458Z,16.18
2023-03-19T12:25:45.434Z,16.37
2023-03-19T12:26:45.447Z,16.37
2023-03-19T12:27:45.410Z,16.56
2023-03-19T12:28:45.412Z,16.50
2023-03-19T12:29:45.535Z,16.62
2023-03-19T12:30:45.499Z,16.50
2023-03-19T12:31:45.364Z,16.63
2023-03-19T12:32:45.395Z,16.88
2023-03-19T12:33:45.397Z,17.22
2023-03-19T12:34:45.347Z,17.55
2023-03-19T12:35:45.364Z,17.74
2023-03-19T12:36:45.701Z,17.85
2023-03-19T12:37:45.295Z,17.76
2023-03-19T12:38:45.266Z,17.70
2023-03-19T12:39:45.296Z,17.88
2023-03-19T12:40:45.277Z,17.50
2023-03-19T12:41:45.364Z,17.36
2023-03-19T12:42:45.229Z,17.48
2023-03-19T12:43:45.209Z,17.46
2023-03-19T12:44:45.207Z,17.73
2023-03-19T12:45:45.198Z,17.97
2023-03-19T12:46:45.203Z,18.03
2023-03-19T12:47:45.226Z,18.17
2023-03-19T12:48:45.162Z,18.33
2023-03-19T12:49:45.148Z,18.50
2023-03-19T12:50:50.940Z,17.74
2023-03-19T12:51:45.116Z,18.09
2023-03-19T12:52:45.111Z,18.07